Time;durP1;ratioP1;P1;durP2;ratioP2;P2;SDS_P1;SDS_P2;PMS_P1;PMS_P2;Temp;Humidity;BMP_temperature;BMP_pressure;BME280_temperature;BME280_humidity;BME280_pressure;Samples;Min_cycle;Max_cycle;Signal;HPM_P1;HPM_P2
2023/04/10 00:00:30;;;;;;;6.93;6.20;;;16.10;99.90;;;;;;5031422;28;20032;-74
2023/04/10 00:02:58;;;;;;;6.30;5.70;;;16.00;99.90;;;;;;5030585;28;20032;-74
2023/04/10 00:05:24;;;;;;;6.57;5.95;;;15.90;99.90;;;;;;5014488;28;20026;-74
2023/04/10 00:07:50;;;;;;;6.85;6.25;;;15.90;99.90;;;;;;5030674;28;20041;-74
2023/04/10 00:10:17;;;;;;;8.23;7.43;;;15.80;99.90;;;;;;5031344;28;20480;-74
2023/04/10 00:12:43;;;;;;;7.68;7.05;;;15.80;99.90;;;;;;5031819;28;20029;-74
2023/04/10 00:15:09;;;;;;;7.07;6.38;;;15.80;99.90;;;;;;5029989;28;20033;-73
2023/04/10 00:17:35;;;;;;;7.72;6.72;;;15.80;99.90;;;;;;5030580;28;20030;-74
2023/04/10 00:20:02;;;;;;;7.35;6.57;;;15.70;99.90;;;;;;5031841;28;20030;-74
2023/04/10 00:22:29;;;;;;;8.00;7.22;;;15.70;99.90;;;;;;5033149;28;20022;-74
2023/04/10 00:24:55;;;;;;;7.10;6.50;;;15.60;99.90;;;;;;5035076;28;20037;-74
2023/04/10 00:27:21;;;;;;;7.18;6.47;;;15.60;99.90;;;;;;5030559;28;20052;-74
2023/04/10 00:29:47;;;;;;;7.50;6.80;;;15.50;99.90;;;;;;5054982;28;20045;-74
2023/04/10 00:32:13;;;;;;;7.10;6.35;;;15.40;99.90;;;;;;5054847;28;20033;-73
2023/04/10 00:34:39;;;;;;;7.90;6.35;;;15.30;99.90;;;;;;5036891;28;20048;-74
2023/04/10 00:37:06;;;;;;;7.13;6.43;;;15.40;99.90;;;;;;5055085;28;20029;-74
2023/04/10 00:39:32;;;;;;;7.00;6.40;;;15.30;99.90;;;;;;5054640;28;20033;-73
2023/04/10 00:41:58;;;;;;;6.53;6.03;;;15.30;99.90;;;;;;5053944;28;20037;-74
2023/04/10 00:44:24;;;;;;;7.00;6.03;;;15.20;99.90;;;;;;5042886;28;20037;-74
2023/04/10 00:46:50;;;;;;;7.50;6.80;;;15.30;99.90;;;;;;5018513;28;20041;-74
2023/04/10 00:49:17;;;;;;;8.88;6.78;;;15.20;99.90;;;;;;5015038;28;20037;-74
2023/04/10 00:51:43;;;;;;;8.43;6.60;;;15.10;99.90;;;;;;5032237;28;20054;-74
2023/04/10 00:54:10;;;;;;;7.38;6.68;;;15.00;99.90;;;;;;5016865;28;20033;-74
2023/04/10 00:56:36;;;;;;;7.03;6.35;;;15.10;99.90;;;;;;5017256;28;20026;-74
2023/04/10 00:59:02;;;;;;;7.20;6.25;;;15.00;99.90;;;;;;5017023;28;20036;-74
2023/04/10 01:01:28;;;;;;;6.38;5.88;;;15.10;99.90;;;;;;5016674;28;20040;-73
2023/04/10 01:03:54;;;;;;;6.20;5.70;;;15.00;99.90;;;;;;5033429;28;20056;-74
2023/04/10 01:06:54;;;;;;;6.03;5.47;;;14.90;99.90;;;;;;5033303;28;20384;-74
2023/04/10 01:09:39;;;;;;;7.22;6.47;;;14.80;99.90;;;;;;5034535;28;20056;-74
2023/04/10 01:12:15;;;;;;;7.15;6.50;;;14.70;99.90;;;;;;5034533;28;20384;-74
2023/04/10 01:14:53;;;;;;;8.73;6.80;;;14.70;99.90;;;;;;5033425;28;20073;-74
2023/04/10 01:17:45;;;;;;;6.43;5.75;;;14.60;99.90;;;;;;5017319;28;20030;-74
2023/04/10 01:20:13;;;;;;;6.93;5.80;;;14.60;99.90;;;;;;5033401;28;20388;-74
2023/04/10 01:23:07;;;;;;;6.80;6.13;;;14.50;99.90;;;;;;4999923;28;20530;-74
2023/04/10 01:25:51;;;;;;;9.05;6.32;;;14.60;99.90;;;;;;5034185;28;20055;-74
2023/04/10 01:28:54;;;;;;;7.18;6.40;;;14.50;99.90;;;;;;5014264;28;20038;-74
2023/04/10 01:31:55;;;;;;;7.20;6.13;;;14.50;99.90;;;;;;5013878;28;20041;-74
2023/04/10 01:34:24;;;;;;;9.85;6.63;;;14.50;99.90;;;;;;5012530;28;20036;-74
2023/04/10 01:36:54;;;;;;;9.00;6.97;;;14.50;99.90;;;;;;4980589;28;20041;-73
2023/04/10 01:39:21;;;;;;;7.75;6.25;;;14.50;99.90;;;;;;4997058;28;20032;-74
2023/04/10 01:41:51;;;;;;;7.07;6.43;;;14.50;99.90;;;;;;4996886;28;20511;-74
2023/04/10 01:44:18;;;;;;;7.38;6.30;;;14.50;99.90;;;;;;5006339;28;20040;-74
2023/04/10 01:46:44;;;;;;;7.60;6.80;;;14.50;99.90;;;;;;5032324;28;20022;-75
2023/04/10 01:49:10;;;;;;;6.90;6.25;;;14.50;99.90;;;;;;5032592;28;20044;-74
2023/04/10 01:51:37;;;;;;;7.18;6.47;;;14.60;99.90;;;;;;4998095;28;20065;-74
2023/04/10 01:54:03;;;;;;;7.68;7.00;;;14.70;99.90;;;;;;5012844;28;20034;-74
2023/04/10 01:56:29;;;;;;;7.25;6.65;;;14.80;99.90;;;;;;4996478;28;20030;-74
2023/04/10 01:58:55;;;;;;;7.57;6.80;;;14.80;99.90;;;;;;5013740;28;20026;-74
2023/04/10 02:01:21;;;;;;;7.40;6.50;;;14.80;99.90;;;;;;5012766;28;20038;-74
2023/04/10 02:03:47;;;;;;;7.32;6.63;;;14.80;99.90;;;;;;5024589;28;20032;-74
2023/04/10 02:06:20;;;;;;;6.85;6.28;;;14.80;99.90;;;;;;5030718;28;20044;-74
2023/04/10 02:09:09;;;;;;;6.95;6.30;;;14.80;99.90;;;;;;5028574;28;20025;-75
2023/04/10 02:11:53;;;;;;;8.35;6.30;;;14.80;99.90;;;;;;5014861;28;20033;-74
2023/04/10 02:14:19;;;;;;;10.25;6.22;;;14.80;99.90;;;;;;5011046;28;20049;-74
2023/04/10 02:16:45;;;;;;;7.32;6.63;;;14.70;99.90;;;;;;5013805;28;20037;-74
2023/04/10 02:19:12;;;;;;;6.53;5.93;;;14.70;99.90;;;;;;5013752;28;20048;-74
2023/04/10 02:21:38;;;;;;;6.45;5.85;;;14.80;99.90;;;;;;5031380;28;20038;-74
2023/04/10 02:24:05;;;;;;;7.00;6.40;;;14.80;99.90;;;;;;5030737;28;20384;-74
2023/04/10 02:26:46;;;;;;;6.63;6.03;;;14.80;99.90;;;;;;5030293;28;20029;-74
2023/04/10 02:29:12;;;;;;;6.72;6.07;;;14.80;99.90;;;;;;5014421;28;20088;-74
2023/04/10 02:31:39;;;;;;;7.70;6.55;;;14.80;99.90;;;;;;5013450;28;20385;-74
2023/04/10 02:34:06;;;;;;;7.45;6.85;;;14.80;99.90;;;;;;5030235;28;20037;-74
2023/04/10 02:36:32;;;;;;;7.80;7.10;;;14.80;99.90;;;;;;5031502;28;20040;-74
2023/04/10 02:38:59;;;;;;;8.38;6.38;;;14.80;99.90;;;;;;5013022;28;20041;-74
2023/04/10 02:41:25;;;;;;;9.77;6.88;;;14.70;99.90;;;;;;5013061;28;20089;-74
2023/04/10 02:43:51;;;;;;;7.97;7.25;;;14.70;99.90;;;;;;5017833;28;20028;-74
2023/04/10 02:46:17;;;;;;;7.70;7.00;;;14.80;99.90;;;;;;5031076;28;20029;-74
2023/04/10 02:48:43;;;;;;;7.85;7.05;;;14.80;99.90;;;;;;5014556;28;20034;-74
2023/04/10 02:51:09;;;;;;;9.48;7.20;;;14.80;99.90;;;;;;5017283;28;20054;-74
2023/04/10 02:53:36;;;;;;;7.38;6.68;;;14.80;99.90;;;;;;5012868;28;20033;-74
2023/04/10 02:56:02;;;;;;;7.82;6.82;;;14.80;99.90;;;;;;5012860;28;20041;-74
2023/04/10 02:58:31;;;;;;;7.38;6.68;;;14.70;99.90;;;;;;5012818;28;20400;-74
2023/04/10 03:00:57;;;;;;;7.32;6.60;;;14.70;99.90;;;;;;5011110;28;20045;-74
2023/04/10 03:03:23;;;;;;;7.63;6.82;;;14.60;99.90;;;;;;5012617;28;20041;-74
2023/04/10 03:05:49;;;;;;;9.80;7.57;;;14.60;99.90;;;;;;5012793;28;20037;-74
2023/04/10 03:08:16;;;;;;;7.65;6.95;;;14.60;99.90;;;;;;5012643;28;20030;-74
2023/04/10 03:10:47;;;;;;;7.55;6.72;;;14.60;99.90;;;;;;5011620;28;20041;-74
2023/04/10 03:13:13;;;;;;;;;;;14.60;99.90;;;;;;5011857;28;20380;-74
2023/04/10 03:15:39;;;;;;;6.90;6.20;;;14.60;99.90;;;;;;5011046;28;19917;-74
2023/04/10 03:18:06;;;;;;;6.82;6.18;;;14.60;99.90;;;;;;4994813;28;20026;-74
2023/04/10 03:20:32;;;;;;;7.05;6.22;;;14.60;99.90;;;;;;4995206;28;20017;-74
2023/04/10 03:22:59;;;;;;;7.05;5.78;;;14.60;99.90;;;;;;5011313;28;20034;-74
2023/04/10 03:25:26;;;;;;;7.55;6.85;;;14.60;99.90;;;;;;5011250;28;20400;-74
2023/04/10 03:27:52;;;;;;;8.05;7.25;;;14.60;99.90;;;;;;5029263;28;20034;-74
2023/04/10 03:30:18;;;;;;;8.02;7.28;;;14.50;99.90;;;;;;5033798;28;20056;-74
2023/04/10 03:32:44;;;;;;;7.35;6.10;;;14.40;99.90;;;;;;5051726;28;20025;-74
2023/04/10 03:35:10;;;;;;;6.70;6.05;;;14.40;99.90;;;;;;5052036;28;20043;-74
2023/04/10 03:37:36;;;;;;;6.57;5.97;;;14.40;99.90;;;;;;5052051;28;20024;-74
2023/04/10 03:40:06;;;;;;;7.35;6.75;;;14.40;99.90;;;;;;5033851;28;20142;-74
2023/04/10 03:42:32;;;;;;;11.75;7.85;;;14.30;99.90;;;;;;5051873;28;20033;-74
2023/04/10 03:45:00;;;;;;;9.10;7.40;;;14.30;99.90;;;;;;5050681;28;20029;-74
2023/04/10 03:47:26;;;;;;;13.50;12.27;;;14.30;99.90;;;;;;5051196;28;20033;-74
2023/04/10 03:49:52;;;;;;;16.75;15.45;;;14.30;99.90;;;;;;5047169;28;20030;-74
2023/04/10 03:52:18;;;;;;;10.52;9.65;;;14.30;99.90;;;;;;5030672;28;20049;-74
2023/04/10 03:54:44;;;;;;;9.50;8.68;;;14.30;99.90;;;;;;5032058;28;20029;-74
2023/04/10 03:57:10;;;;;;;10.43;9.43;;;14.40;99.90;;;;;;5034179;28;20033;-74
2023/04/10 03:59:36;;;;;;;13.23;12.23;;;14.30;99.90;;;;;;5035906;28;20026;-74
2023/04/10 04:02:02;;;;;;;23.23;21.80;;;14.20;99.90;;;;;;5035118;28;20041;-74
2023/04/10 04:04:30;;;;;;;18.80;17.60;;;14.30;99.90;;;;;;5034641;28;20037;-74
2023/04/10 04:06:56;;;;;;;22.85;21.45;;;14.20;99.90;;;;;;5035662;28;20021;-74
2023/04/10 04:09:22;;;;;;;13.05;12.05;;;14.20;99.90;;;;;;5034516;28;20503;-74
2023/04/10 04:11:48;;;;;;;10.20;9.40;;;14.30;99.90;;;;;;5035550;28;20041;-74
2023/04/10 04:14:14;;;;;;;7.93;7.22;;;14.30;99.90;;;;;;5035563;28;20036;-74
2023/04/10 04:16:40;;;;;;;6.72;5.80;;;14.30;99.90;;;;;;5034849;28;20396;-74
2023/04/10 04:19:06;;;;;;;9.07;8.15;;;14.30;99.90;;;;;;5017813;28;20033;-74
2023/04/10 04:21:32;;;;;;;9.27;8.57;;;14.40;99.90;;;;;;5034072;28;20488;-74
2023/04/10 04:23:58;;;;;;;7.45;6.75;;;14.30;99.90;;;;;;5017627;28;20030;-74
2023/04/10 04:26:25;;;;;;;9.15;7.20;;;14.30;99.90;;;;;;5039185;28;20029;-74
2023/04/10 04:28:51;;;;;;;8.07;6.78;;;14.30;99.90;;;;;;5037046;28;20033;-74
2023/04/10 04:31:17;;;;;;;7.10;6.40;;;14.30;99.90;;;;;;5053140;28;20381;-74
2023/04/10 04:33:43;;;;;;;7.18;6.57;;;14.30;99.90;;;;;;5053999;28;20025;-74
2023/04/10 04:36:09;;;;;;;8.23;7.20;;;14.30;99.90;;;;;;5055088;28;20391;-74
2023/04/10 04:38:35;;;;;;;8.77;7.85;;;14.30;99.90;;;;;;5036899;28;20040;-74
2023/04/10 04:41:01;;;;;;;9.25;8.45;;;14.30;99.90;;;;;;5054915;28;20476;-74
2023/04/10 04:43:27;;;;;;;8.77;8.07;;;14.30;99.90;;;;;;5055105;28;20024;-74
2023/04/10 04:45:53;;;;;;;7.88;7.20;;;14.20;99.90;;;;;;5052902;28;20395;-74
2023/04/10 04:48:19;;;;;;;7.10;6.50;;;14.20;99.90;;;;;;5053606;28;20036;-74
2023/04/10 04:50:45;;;;;;;8.85;7.32;;;14.20;99.90;;;;;;5043835;28;20503;-74
2023/04/10 04:53:12;;;;;;;7.75;7.15;;;14.20;99.90;;;;;;5033628;28;20041;-74
2023/04/10 04:55:38;;;;;;;7.35;6.75;;;14.30;99.90;;;;;;5033588;28;20034;-74
2023/04/10 04:58:04;;;;;;;6.68;6.07;;;14.20;99.90;;;;;;5034802;28;20044;-74
2023/04/10 05:00:30;;;;;;;7.10;6.50;;;14.20;99.90;;;;;;5033867;28;20026;-74
2023/04/10 05:02:56;;;;;;;6.20;5.60;;;14.20;99.90;;;;;;5033401;28;20504;-74
2023/04/10 05:05:23;;;;;;;6.82;6.07;;;14.30;99.90;;;;;;5034887;28;20028;-74
2023/04/10 05:07:49;;;;;;;6.78;6.07;;;14.30;99.90;;;;;;5032081;28;20025;-74
2023/04/10 05:10:15;;;;;;;7.28;6.57;;;14.30;99.90;;;;;;5033375;28;20387;-74
2023/04/10 05:12:42;;;;;;;6.80;6.20;;;14.30;99.90;;;;;;5034449;28;20028;-74
2023/04/10 05:15:08;;;;;;;7.05;6.35;;;14.30;99.90;;;;;;5032634;28;20033;-74
2023/04/10 05:17:34;;;;;;;8.02;6.03;;;14.30;99.90;;;;;;5033295;28;20022;-74
2023/04/10 05:20:01;;;;;;;8.25;7.45;;;14.30;99.90;;;;;;5034327;28;20025;-74
2023/04/10 05:22:27;;;;;;;10.57;9.73;;;14.30;99.90;;;;;;5033292;28;20403;-74
2023/04/10 05:24:54;;;;;;;19.10;18.00;;;14.20;99.90;;;;;;5034254;28;20023;-74
2023/04/10 05:27:20;;;;;;;24.65;22.95;;;14.10;99.90;;;;;;5045703;28;20029;-74
2023/04/10 05:29:46;;;;;;;25.45;23.83;;;14.00;99.90;;;;;;5052604;28;20025;-74
2023/04/10 05:32:13;;;;;;;16.83;15.60;;;14.10;99.90;;;;;;5052239;28;20037;-74
2023/04/10 05:34:39;;;;;;;14.52;13.50;;;14.00;99.90;;;;;;5052838;28;20029;-74
2023/04/10 05:37:05;;;;;;;15.50;14.25;;;14.00;99.90;;;;;;5052805;28;20024;-74
2023/04/10 05:39:31;;;;;;;12.73;11.75;;;14.00;99.90;;;;;;5052523;28;20490;-74
2023/04/10 05:41:57;;;;;;;14.77;13.48;;;14.10;99.90;;;;;;5052835;28;20025;-74
2023/04/10 05:44:23;;;;;;;12.45;11.45;;;14.10;99.90;;;;;;5053486;28;20383;-74
2023/04/10 05:46:49;;;;;;;12.02;11.00;;;14.10;99.90;;;;;;5052070;28;20032;-74
2023/04/10 05:49:15;;;;;;;6.78;6.10;;;14.00;99.90;;;;;;5053699;28;20379;-74
2023/04/10 05:51:42;;;;;;;8.63;6.18;;;14.00;99.90;;;;;;5034864;28;20050;-74
2023/04/10 05:54:08;;;;;;;8.00;5.53;;;14.00;99.90;;;;;;5032612;28;20413;-74
2023/04/10 05:56:34;;;;;;;7.70;5.50;;;14.00;99.90;;;;;;5033639;28;20032;-74
2023/04/10 05:59:00;;;;;;;5.80;5.15;;;14.00;99.90;;;;;;5033154;28;20025;-74
2023/04/10 06:01:26;;;;;;;8.20;5.47;;;14.00;99.90;;;;;;5015255;28;20033;-74
2023/04/10 06:03:52;;;;;;;8.57;5.10;;;14.00;99.90;;;;;;5033960;28;20053;-74
2023/04/10 06:06:19;;;;;;;6.00;5.40;;;14.00;99.90;;;;;;5033469;28;20029;-74
2023/04/10 06:08:45;;;;;;;6.18;5.50;;;14.10;99.90;;;;;;5033445;28;20037;-74
2023/04/10 06:11:11;;;;;;;8.65;6.47;;;14.10;99.90;;;;;;5032083;28;20044;-74
2023/04/10 06:13:37;;;;;;;6.88;6.18;;;14.00;99.90;;;;;;5032869;28;20025;-74
2023/04/10 06:16:04;;;;;;;10.80;6.43;;;14.10;99.90;;;;;;5032946;28;20030;-74
2023/04/10 06:18:30;;;;;;;6.07;5.30;;;14.00;99.90;;;;;;5033067;28;20389;-74
2023/04/10 06:20:59;;;;;;;10.98;5.82;;;14.00;99.90;;;;;;5032781;28;20029;-74
2023/04/10 06:23:25;;;;;;;7.72;5.68;;;13.90;99.90;;;;;;5032134;28;20376;-74
2023/04/10 06:25:51;;;;;;;7.28;6.35;;;13.90;99.90;;;;;;5033101;28;20464;-74
2023/04/10 06:28:17;;;;;;;7.90;6.60;;;13.90;99.90;;;;;;5052859;28;20029;-74
2023/04/10 06:30:43;;;;;;;7.43;6.20;;;13.90;99.90;;;;;;5051302;28;20033;-74
2023/04/10 06:33:09;;;;;;;7.63;5.68;;;13.80;99.90;;;;;;5051670;28;20036;-74
2023/04/10 06:35:36;;;;;;;7.65;5.88;;;13.90;99.90;;;;;;5051635;28;20045;-74
2023/04/10 06:38:03;;;;;;;7.88;5.40;;;13.90;99.90;;;;;;5052705;28;20219;-74
2023/04/10 06:40:29;;;;;;;8.65;6.00;;;13.90;99.90;;;;;;5052475;28;20045;-74
2023/04/10 06:42:56;;;;;;;6.20;5.55;;;13.90;99.90;;;;;;5051659;28;20402;-74
2023/04/10 06:45:22;;;;;;;7.85;6.05;;;13.90;99.90;;;;;;5052296;28;20056;-74
2023/04/10 06:47:48;;;;;;;10.50;7.20;;;13.90;99.90;;;;;;5052617;28;20032;-74
2023/04/10 06:50:14;;;;;;;8.27;6.40;;;14.00;99.90;;;;;;5061381;28;20040;-74
2023/04/10 06:52:41;;;;;;;7.78;6.05;;;14.00;99.90;;;;;;4998180;28;20041;-74
2023/04/10 06:55:07;;;;;;;7.63;5.70;;;14.00;99.90;;;;;;5014702;28;20037;-74
2023/04/10 06:57:33;;;;;;;6.68;5.97;;;13.90;99.90;;;;;;5031378;28;20490;-74
2023/04/10 06:59:59;;;;;;;9.43;5.43;;;13.90;99.90;;;;;;5031313;28;20029;-74
2023/04/10 07:02:25;;;;;;;7.47;6.00;;;13.80;99.90;;;;;;5032106;28;20037;-74
2023/04/10 07:04:52;;;;;;;7.00;6.35;;;13.80;99.90;;;;;;5032688;28;20029;-74
2023/04/10 07:07:18;;;;;;;7.72;6.78;;;13.90;99.90;;;;;;5031439;28;20038;-74
2023/04/10 07:09:44;;;;;;;10.90;7.00;;;13.90;99.90;;;;;;5032149;28;20392;-74
2023/04/10 07:12:10;;;;;;;10.10;6.90;;;13.90;99.90;;;;;;5031199;28;20052;-74
2023/04/10 07:14:37;;;;;;;8.98;7.07;;;13.80;99.90;;;;;;5032212;28;20108;-74
2023/04/10 07:17:03;;;;;;;9.80;7.45;;;13.90;99.90;;;;;;5032072;28;20042;-74
2023/04/10 07:19:29;;;;;;;11.93;6.95;;;13.90;99.90;;;;;;5032448;28;20040;-73
2023/04/10 07:21:55;;;;;;;12.05;7.07;;;14.00;99.90;;;;;;5031214;28;20033;-74
2023/04/10 07:24:21;;;;;;;10.02;7.25;;;14.10;99.90;;;;;;5031984;28;20036;-74
2023/04/10 07:26:47;;;;;;;13.90;7.43;;;14.10;99.90;;;;;;5039260;28;20033;-74
2023/04/10 07:29:14;;;;;;;14.13;6.82;;;14.00;99.90;;;;;;5034226;28;20052;-74
2023/04/10 07:31:40;;;;;;;10.65;7.28;;;14.10;99.90;;;;;;5051808;28;20037;-74
2023/04/10 07:34:06;;;;;;;8.85;7.32;;;14.10;99.90;;;;;;5056389;28;20029;-74
2023/04/10 07:36:33;;;;;;;11.88;7.32;;;14.10;99.90;;;;;;5054929;28;20044;-74
2023/04/10 07:38:59;;;;;;;13.45;7.05;;;14.10;99.90;;;;;;5054666;28;20055;-74
2023/04/10 07:41:25;;;;;;;9.65;7.35;;;14.10;99.90;;;;;;5056163;28;20032;-75
2023/04/10 07:43:51;;;;;;;11.25;7.60;;;14.20;99.90;;;;;;5056119;28;20017;-74
2023/04/10 07:46:17;;;;;;;12.48;7.47;;;14.30;99.90;;;;;;5055624;28;20044;-74
2023/04/10 07:48:43;;;;;;;14.98;7.80;;;14.30;99.90;;;;;;5056073;28;20502;-74
2023/04/10 07:51:09;;;;;;;10.48;7.65;;;14.20;99.90;;;;;;5039913;28;20060;-74
2023/04/10 07:53:36;;;;;;;11.35;7.90;;;14.20;99.90;;;;;;5034425;28;20028;-74
2023/04/10 07:56:02;;;;;;;11.80;8.15;;;14.20;99.90;;;;;;5018441;28;20021;-74
2023/04/10 07:58:28;;;;;;;10.18;8.30;;;14.30;99.90;;;;;;5018145;28;20504;-74
2023/04/10 08:00:54;;;;;;;12.30;8.55;;;14.40;99.90;;;;;;5035165;28;20029;-74
2023/04/10 08:03:21;;;;;;;10.35;7.90;;;14.40;99.90;;;;;;5035793;28;20017;-74
2023/04/10 08:05:47;;;;;;;15.77;9.20;;;14.50;99.90;;;;;;5035745;28;20040;-75
2023/04/10 08:08:14;;;;;;;12.93;7.88;;;14.50;99.90;;;;;;5034245;28;20041;-74
2023/04/10 08:10:41;;;;;;;10.75;7.95;;;14.50;99.90;;;;;;5018084;28;20033;-74
2023/04/10 08:13:07;;;;;;;14.45;8.43;;;14.50;99.90;;;;;;5018078;28;20044;-74
2023/04/10 08:15:33;;;;;;;10.98;7.93;;;14.50;99.90;;;;;;5033970;28;20029;-74
2023/04/10 08:17:59;;;;;;;12.95;8.35;;;14.50;99.90;;;;;;5034337;28;20226;-74
2023/04/10 08:20:26;;;;;;;11.13;8.52;;;14.50;99.90;;;;;;5035387;28;20037;-74
2023/04/10 08:22:53;;;;;;;12.75;8.70;;;14.50;99.90;;;;;;5035239;28;20026;-75
2023/04/10 08:25:19;;;;;;;15.52;7.93;;;14.50;99.90;;;;;;5035318;28;20049;-74
2023/04/10 08:27:45;;;;;;;10.77;8.05;;;14.50;99.90;;;;;;5050080;28;20032;-74
2023/04/10 08:30:11;;;;;;;12.43;7.90;;;14.50;99.90;;;;;;5054808;28;20033;-74
2023/04/10 08:32:38;;;;;;;16.48;8.00;;;14.60;99.90;;;;;;5055163;28;20045;-74
2023/04/10 08:35:04;;;;;;;13.82;8.43;;;14.60;99.90;;;;;;5055055;28;20040;-74
2023/04/10 08:37:30;;;;;;;12.52;8.30;;;14.60;99.90;;;;;;5054803;28;20036;-74
2023/04/10 08:39:57;;;;;;;13.60;8.23;;;14.60;99.90;;;;;;5054079;28;20029;-74
2023/04/10 08:42:24;;;;;;;11.98;7.90;;;14.60;99.90;;;;;;5054601;28;20478;-74
2023/04/10 08:44:51;;;;;;;12.77;8.02;;;14.70;99.90;;;;;;5055079;28;20025;-74
2023/04/10 08:47:19;;;;;;;10.00;7.78;;;14.70;99.90;;;;;;5052891;28;20032;-74
2023/04/10 08:50:00;;;;;;;11.60;7.68;;;14.60;99.90;;;;;;5051098;28;20021;-74
2023/04/10 08:52:26;;;;;;;;;;;14.60;99.90;;;;;;5017709;28;20049;-74
2023/04/10 08:54:57;;;;;;;16.67;8.18;;;14.60;99.90;;;;;;5033800;28;19934;-74
2023/04/10 08:57:23;;;;;;;11.38;8.43;;;14.70;99.90;;;;;;5017445;28;20052;-75
2023/04/10 08:59:52;;;;;;;12.52;8.00;;;14.60;99.90;;;;;;5033563;28;20092;-74
2023/04/10 09:02:19;;;;;;;12.63;7.75;;;14.70;99.90;;;;;;5000704;28;20041;-74
2023/04/10 09:04:51;;;;;;;14.57;8.05;;;14.70;99.90;;;;;;5033470;28;20040;-74
2023/04/10 09:07:17;;;;;;;12.55;8.25;;;14.70;99.90;;;;;;5033120;28;20031;-74
2023/04/10 09:09:43;;;;;;;15.02;8.23;;;14.80;99.90;;;;;;5033405;28;20026;-74
2023/04/10 09:12:10;;;;;;;13.35;8.80;;;14.70;99.90;;;;;;5033308;28;20041;-74
2023/04/10 09:14:37;;;;;;;12.55;8.45;;;14.80;99.90;;;;;;5017063;28;20017;-74
2023/04/10 09:17:19;;;;;;;13.98;7.80;;;14.80;99.90;;;;;;5032524;28;20029;-74
2023/04/10 09:19:51;;;;;;;10.05;8.00;;;14.80;99.90;;;;;;5034428;28;20037;-74
2023/04/10 09:22:17;;;;;;;11.15;7.93;;;14.90;99.90;;;;;;5034211;28;20037;-74
2023/04/10 09:24:45;;;;;;;10.73;7.43;;;14.90;99.90;;;;;;5033098;28;20048;-75
2023/04/10 09:27:34;;;;;;;8.48;7.00;;;15.00;99.90;;;;;;5044313;28;20060;-75
2023/04/10 09:30:00;;;;;;;12.10;7.13;;;15.10;99.90;;;;;;5053008;28;20387;-74
2023/04/10 09:32:40;;;;;;;10.80;6.47;;;15.20;99.90;;;;;;5052264;28;20040;-75
2023/04/10 09:35:07;;;;;;;10.10;6.95;;;15.30;99.90;;;;;;5035761;28;20033;-74
2023/04/10 09:37:34;;;;;;;10.57;7.13;;;15.40;99.90;;;;;;5036063;28;20041;-74
2023/04/10 09:40:00;;;;;;;9.43;7.47;;;15.40;99.90;;;;;;5052783;28;20364;-74
2023/04/10 09:42:34;;;;;;;11.77;7.00;;;15.50;99.90;;;;;;5052638;28;20034;-75
2023/04/10 09:45:00;;;;;;;7.35;6.30;;;15.70;99.90;;;;;;5052545;28;20037;-74
2023/04/10 09:47:26;;;;;;;8.43;6.05;;;15.80;99.90;;;;;;5053261;28;20037;-75
2023/04/10 09:49:59;;;;;;;9.50;6.85;;;16.00;99.90;;;;;;5049794;28;20388;-75
2023/04/10 09:52:33;;;;;;;8.63;6.18;;;16.10;99.90;;;;;;5016335;28;20053;-74
2023/04/10 09:55:03;;;;;;;7.75;6.05;;;16.20;99.90;;;;;;5031861;28;20029;-74
2023/04/10 09:57:30;;;;;;;13.35;6.40;;;16.30;99.90;;;;;;5016206;28;20041;-74
2023/04/10 09:59:58;;;;;;;9.43;5.78;;;16.30;99.90;;;;;;5032535;28;20060;-75
2023/04/10 10:02:27;;;;;;;10.48;6.10;;;16.30;99.90;;;;;;5015579;28;20044;-74
2023/04/10 10:04:53;;;;;;;12.02;7.47;;;16.40;99.90;;;;;;5032077;28;20033;-75
2023/04/10 10:07:20;;;;;;;8.52;6.15;;;16.30;99.90;;;;;;5015921;28;20415;-75
2023/04/10 10:09:48;;;;;;;6.53;5.60;;;16.40;99.90;;;;;;5033441;28;20048;-75
2023/04/10 10:12:15;;;;;;;7.95;6.15;;;16.50;99.90;;;;;;4999465;28;20514;-75
2023/04/10 10:14:50;;;;;;;9.27;5.57;;;16.60;99.90;;;;;;5015902;28;20032;-75
2023/04/10 10:17:18;;;;;;;11.60;5.35;;;16.70;99.90;;;;;;5016030;28;20388;-75
2023/04/10 10:20:04;;;;;;;8.80;5.50;;;16.80;99.90;;;;;;5015147;28;20045;-75
2023/04/10 10:22:30;;;;;;;6.90;5.10;;;16.80;99.90;;;;;;5018191;28;20037;-74
2023/04/10 10:24:56;;;;;;;7.22;4.55;;;16.80;99.90;;;;;;5015607;28;20472;-75
2023/04/10 10:27:23;;;;;;;6.05;5.03;;;16.80;99.90;;;;;;5028248;28;20072;-75
2023/04/10 10:29:49;;;;;;;7.40;5.03;;;16.80;99.90;;;;;;5035408;28;20025;-74
2023/04/10 10:32:17;;;;;;;7.72;4.45;;;16.70;99.90;;;;;;5034740;28;20044;-75
2023/04/10 10:34:43;;;;;;;5.55;4.45;;;16.60;99.90;;;;;;5051813;28;20033;-74
2023/04/10 10:37:10;;;;;;;6.47;4.82;;;16.60;99.90;;;;;;5035235;28;20040;-75
2023/04/10 10:39:54;;;;;;;7.07;4.30;;;16.60;99.90;;;;;;5035073;28;20055;-74
2023/04/10 10:42:46;;;;;;;5.43;4.22;;;16.70;99.90;;;;;;5052689;28;20040;-75
2023/04/10 10:45:37;;;;;;;6.22;4.50;;;16.70;99.90;;;;;;5032510;28;20349;-75
2023/04/10 10:48:03;;;;;;;;;;;16.70;99.90;;;;;;5012167;28;20540;-75
2023/04/10 10:50:52;;;;;;;7.13;4.18;;;16.60;99.90;;;;;;5020060;28;19943;-74
2023/04/10 10:53:44;;;;;;;6.85;4.70;;;16.60;99.90;;;;;;5031238;28;20504;-74
2023/04/10 10:56:22;;;;;;;5.88;4.15;;;16.50;99.90;;;;;;5027172;28;20045;-74
2023/04/10 10:58:57;;;;;;;4.78;4.13;;;16.50;99.90;;;;;;5032811;28;20029;-74
2023/04/10 11:01:23;;;;;;;5.20;4.70;;;16.60;99.90;;;;;;5031793;28;20502;-75
2023/04/10 11:03:49;;;;;;;5.18;4.53;;;16.50;99.90;;;;;;5031400;28;20038;-74
2023/04/10 11:06:18;;;;;;;6.03;3.95;;;16.60;99.90;;;;;;5031306;28;20029;-74
2023/04/10 11:08:46;;;;;;;5.07;3.85;;;16.70;99.90;;;;;;5031256;28;20484;-75
2023/04/10 11:11:26;;;;;;;6.75;3.80;;;16.80;99.90;;;;;;5014992;28;20029;-75
2023/04/10 11:13:52;;;;;;;7.90;4.00;;;16.80;99.90;;;;;;5031330;28;20045;-75
2023/04/10 11:16:19;;;;;;;7.05;4.25;;;16.90;99.90;;;;;;5031638;28;20044;-74
2023/04/10 11:18:45;;;;;;;5.97;4.15;;;16.90;99.90;;;;;;5031236;28;20384;-75
2023/04/10 11:21:21;;;;;;;4.72;3.90;;;16.80;99.90;;;;;;5030912;28;20049;-75
2023/04/10 11:23:56;;;;;;;4.18;3.78;;;16.80;99.90;;;;;;5031135;28;20045;-74
2023/04/10 11:26:43;;;;;;;5.53;4.32;;;16.90;99.90;;;;;;5031967;28;20510;-75
2023/04/10 11:29:13;;;;;;;6.72;4.72;;;17.00;99.90;;;;;;5032139;28;20025;-75
2023/04/10 11:31:39;;;;;;;5.18;4.50;;;17.00;99.90;;;;;;5031445;28;20045;-74
2023/04/10 11:34:06;;;;;;;5.68;4.70;;;17.00;99.90;;;;;;5030943;28;20025;-75
2023/04/10 11:36:33;;;;;;;10.82;6.93;;;16.90;99.90;;;;;;5030954;28;20048;-75
2023/04/10 11:39:09;;;;;;;11.65;6.80;;;16.90;99.90;;;;;;5030948;28;20407;-75
2023/04/10 11:41:45;;;;;;;6.53;5.30;;;16.80;99.90;;;;;;5030949;28;20051;-75
2023/04/10 11:44:16;;;;;;;5.18;4.10;;;16.70;99.90;;;;;;5023250;28;20022;-75
2023/04/10 11:46:45;;;;;;;;;;;16.70;99.90;;;;;;5008608;28;20037;-75
2023/04/10 11:49:11;;;;;;;7.07;3.78;;;16.70;99.90;;;;;;5030956;28;19913;-75
2023/04/10 11:51:38;;;;;;;4.32;3.70;;;16.60;99.90;;;;;;5048336;28;20052;-75
2023/04/10 11:54:05;;;;;;;5.05;3.90;;;16.60;99.90;;;;;;5050760;28;20023;-75
2023/04/10 11:56:31;;;;;;;4.50;3.60;;;16.60;99.90;;;;;;5052127;28;20052;-75
2023/04/10 11:58:57;;;;;;;4.30;3.90;;;16.60;99.90;;;;;;5033547;28;20041;-75
2023/04/10 12:01:23;;;;;;;8.18;4.05;;;16.60;99.90;;;;;;5051138;28;20037;-74
2023/04/10 12:03:49;;;;;;;6.65;3.97;;;16.60;99.90;;;;;;5050580;28;20024;-74
2023/04/10 12:06:15;;;;;;;4.45;3.67;;;16.50;99.90;;;;;;5050862;28;20025;-75
2023/04/10 12:08:49;;;;;;;5.15;4.03;;;16.50;99.90;;;;;;5050015;28;20033;-75
2023/04/10 12:11:20;;;;;;;4.30;3.78;;;16.50;99.90;;;;;;5034671;28;20021;-74
2023/04/10 12:13:47;;;;;;;8.50;3.65;;;16.50;99.90;;;;;;5050456;28;20025;-75
2023/04/10 12:16:13;;;;;;;6.03;3.90;;;16.40;99.90;;;;;;5050155;28;20025;-74
2023/04/10 12:18:39;;;;;;;7.00;4.40;;;16.40;99.90;;;;;;5019909;28;20041;-75
2023/04/10 12:21:05;;;;;;;7.35;3.92;;;16.40;99.90;;;;;;5037638;28;20440;-75
2023/04/10 12:23:32;;;;;;;6.57;3.90;;;16.40;99.90;;;;;;5037649;28;20033;-74
2023/04/10 12:26:15;;;;;;;6.13;3.95;;;16.40;99.90;;;;;;5037724;28;20029;-75
2023/04/10 12:28:49;;;;;;;4.78;4.20;;;16.40;99.90;;;;;;5036791;28;20394;-75
2023/04/10 12:31:15;;;;;;;9.38;4.25;;;16.40;99.90;;;;;;5053637;28;20040;-74
2023/04/10 12:33:47;;;;;;;8.65;4.15;;;16.50;99.90;;;;;;5053987;28;20033;-75
2023/04/10 12:36:20;;;;;;;5.60;3.95;;;16.40;99.90;;;;;;5054034;28;20468;-74
2023/04/10 12:38:46;;;;;;;5.50;3.78;;;16.40;99.90;;;;;;5053901;28;20025;-75
2023/04/10 12:41:13;;;;;;;8.35;3.97;;;16.30;99.90;;;;;;5053839;28;20041;-75
2023/04/10 12:43:40;;;;;;;3.75;3.28;;;16.30;99.90;;;;;;5049057;28;20040;-75
2023/04/10 12:46:08;;;;;;;4.50;3.60;;;16.40;99.90;;;;;;5017231;28;20037;-75
2023/04/10 12:48:34;;;;;;;5.78;3.45;;;16.40;99.90;;;;;;5017355;28;20029;-75
2023/04/10 12:51:00;;;;;;;5.00;3.40;;;16.40;99.90;;;;;;5026411;28;20044;-74